createdAt,value
2022-09-16T00:00:08.111Z,100399.44
2022-09-16T00:02:39.356Z,100405.66
2022-09-16T00:05:07.214Z,100414.53
2022-09-16T00:07:33.931Z,100418.06
2022-09-16T00:10:01.047Z,100421.59
2022-09-16T00:12:28.294Z,100426.91
2022-09-16T00:14:55.398Z,100431.34
2022-09-16T00:17:22.470Z,100425.13
2022-09-16T00:19:50.597Z,100422.50
2022-09-16T00:22:18.083Z,100418.06
2022-09-16T00:24:44.726Z,100418.06
2022-09-16T00:27:11.660Z,100426.00
2022-09-16T00:29:38.239Z,100416.28
2022-09-16T00:32:05.046Z,100417.16
2022-09-16T00:34:31.724Z,100417.16
2022-09-16T00:36:58.347Z,100418.06
2022-09-16T00:39:25.444Z,100417.16
2022-09-16T00:41:52.079Z,100418.94
2022-09-16T00:44:54.655Z,100414.50
2022-09-16T00:47:44.140Z,100417.13
2022-09-16T00:50:24.842Z,100413.63
2022-09-16T00:52:52.152Z,100411.81
2022-09-16T00:55:22.709Z,100428.66
2022-09-16T00:57:49.541Z,100413.63
2022-09-16T01:00:16.686Z,100425.13
2022-09-16T01:02:44.094Z,100432.25
2022-09-16T01:05:17.307Z,100427.81
2022-09-16T01:07:51.807Z,100430.44
2022-09-16T01:10:21.682Z,100426.00
2022-09-16T01:13:05.997Z,100424.25
2022-09-16T01:16:00.710Z,100425.16
2022-09-16T01:18:59.720Z,100426.91
2022-09-16T01:21:44.533Z,100418.91
2022-09-16T01:24:26.491Z,100414.50
2022-09-16T01:27:17.864Z,100416.28
2022-09-16T01:30:07.596Z,100415.38
2022-09-16T01:33:01.429Z,100422.44
2022-09-16T01:35:38.495Z,100414.50
2022-09-16T01:38:24.984Z,100417.13
2022-09-16T01:41:22.624Z,100409.97
2022-09-16T01:44:40.940Z,100410.91
2022-09-16T01:47:21.919Z,100413.59
2022-09-16T01:50:25.106Z,100409.16
2022-09-16T01:52:54.840Z,100416.25
2022-09-16T01:55:28.230Z,100418.88
2022-09-16T01:58:23.897Z,100411.81
2022-09-16T02:00:55.607Z,100415.38
2022-09-16T02:03:26.390Z,100415.38
2022-09-16T02:06:13.052Z,100410.00
2022-09-16T02:08:39.640Z,100411.81
2022-09-16T02:11:09.035Z,100412.66
2022-09-16T02:13:39.408Z,100403.78
2022-09-16T02:16:10.970Z,100404.72
2022-09-16T02:18:41.320Z,100400.31
2022-09-16T02:21:11.591Z,100407.34
2022-09-16T02:23:41.729Z,100407.34
2022-09-16T02:26:10.332Z,100406.53
2022-09-16T02:28:39.771Z,100404.75
2022-09-16T02:31:09.679Z,100400.31
2022-09-16T02:33:45.319Z,100405.63
2022-09-16T02:36:15.268Z,100407.44
2022-09-16T02:38:45.543Z,100404.75
2022-09-16T02:41:14.859Z,100402.09
2022-09-16T02:43:42.817Z,100403.88
2022-09-16T02:46:34.759Z,100387.91
2022-09-16T02:49:21.984Z,100391.50
2022-09-16T02:52:10.128Z,100384.38
2022-09-16T02:55:11.667Z,100391.50
2022-09-16T02:57:38.460Z,100393.25
2022-09-16T03:00:06.576Z,100396.78
2022-09-16T03:02:34.649Z,100396.78
2022-09-16T03:05:02.088Z,100398.53
2022-09-16T03:07:28.682Z,100393.25
2022-09-16T03:09:55.882Z,100392.31
2022-09-16T03:12:49.636Z,100391.44
2022-09-16T03:15:36.537Z,100386.97
2022-09-16T03:18:15.423Z,100387.00
2022-09-16T03:20:56.661Z,100379.00
2022-09-16T03:23:44.625Z,100385.19
2022-09-16T03:26:16.804Z,100391.44
2022-09-16T03:29:21.169Z,100397.63
2022-09-16T03:31:50.701Z,100388.81
2022-09-16T03:34:25.510Z,100384.38
2022-09-16T03:36:59.225Z,100387.94
2022-09-16T03:39:25.871Z,100382.59
2022-09-16T03:41:52.745Z,100383.44
2022-09-16T03:44:19.458Z,100386.09
2022-09-16T03:46:46.378Z,100388.78
2022-09-16T03:49:13.220Z,100371.97
2022-09-16T03:51:39.856Z,100377.25
2022-09-16T03:54:06.477Z,100382.56
2022-09-16T03:56:33.058Z,100374.63
2022-09-16T03:58:59.710Z,100370.22
2022-09-16T04:01:26.301Z,100369.28
2022-09-16T04:03:53.188Z,100365.72
2022-09-16T04:06:20.126Z,100374.59
2022-09-16T04:08:47.423Z,100365.72
2022-09-16T04:11:14.173Z,100372.81
2022-09-16T04:13:40.836Z,100363.97
2022-09-16T04:16:07.886Z,100370.16
2022-09-16T04:18:35.352Z,100378.09
2022-09-16T04:21:03.252Z,100360.41
2022-09-16T04:23:31.169Z,100355.06
2022-09-16T04:25:59.103Z,100359.50
2022-09-16T04:28:26.461Z,100359.50
2022-09-16T04:30:53.231Z,100355.94
2022-09-16T04:33:21.035Z,100365.66
2022-09-16T04:35:47.908Z,100367.47
2022-09-16T04:38:14.567Z,100363.00
2022-09-16T04:40:41.916Z,100361.22
2022-09-16T04:43:09.508Z,100365.59
2022-09-16T04:45:36.207Z,100354.06
2022-09-16T04:48:02.938Z,100362.06
2022-09-16T04:50:29.570Z,100354.16
2022-09-16T04:52:56.339Z,100360.31
2022-09-16T04:55:23.389Z,100362.06
2022-09-16T04:57:53.246Z,100358.53
2022-09-16T05:00:20.140Z,100355.06
2022-09-16T05:02:47.155Z,100360.34
2022-09-16T05:05:17.363Z,100362.06
2022-09-16T05:07:44.195Z,100362.16
2022-09-16T05:10:10.872Z,100367.47
2022-09-16T05:12:37.809Z,100359.50
2022-09-16T05:15:05.353Z,100364.88
2022-09-16T05:17:50.409Z,100362.13
2022-09-16T05:20:18.270Z,100363.06
2022-09-16T05:22:45.279Z,100365.72
2022-09-16T05:25:12.085Z,100365.75
2022-09-16T05:27:39.051Z,100361.31
2022-09-16T05:30:06.521Z,100371.06
2022-09-16T05:32:33.361Z,100368.41
2022-09-16T05:35:00.310Z,100374.63
2022-09-16T05:37:27.279Z,100373.69
2022-09-16T05:39:54.194Z,100367.50
2022-09-16T05:42:21.206Z,100377.22
2022-09-16T05:44:48.104Z,100384.31
2022-09-16T05:47:14.817Z,100370.13
2022-09-16T05:49:41.656Z,100376.28
2022-09-16T05:52:08.394Z,100371.84
2022-09-16T05:54:35.117Z,100371.84
2022-09-16T05:57:06.618Z,100379.00
2022-09-16T05:59:33.838Z,100369.22
2022-09-16T06:02:02.529Z,100368.28
2022-09-16T06:04:29.350Z,100376.28
2022-09-16T06:06:56.127Z,100375.38
2022-09-16T06:09:24.390Z,100377.19
2022-09-16T06:11:56.620Z,100377.19
2022-09-16T06:14:25.156Z,100380.59
2022-09-16T06:16:51.991Z,100381.53
2022-09-16T06:19:20.446Z,100387.75
2022-09-16T06:21:47.528Z,100386.88
2022-09-16T06:24:16.265Z,100385.06
2022-09-16T06:26:44.383Z,100385.09
2022-09-16T06:29:11.835Z,100382.44
2022-09-16T06:31:38.685Z,100387.72
2022-09-16T06:34:06.763Z,100388.59
2022-09-16T06:36:35.994Z,100388.59
2022-09-16T06:39:04.246Z,100390.41
2022-09-16T06:41:33.521Z,100385.16
2022-09-16T06:44:00.717Z,100384.31
2022-09-16T06:46:28.976Z,100388.75
2022-09-16T06:48:58.681Z,100391.41
2022-09-16T06:51:29.634Z,100375.53
2022-09-16T06:54:01.555Z,100391.41
2022-09-16T06:56:28.337Z,100387.84
2022-09-16T06:58:55.929Z,100378.13
2022-09-16T07:01:29.646Z,100380.81
2022-09-16T07:03:58.282Z,100387.00
2022-09-16T07:06:49.581Z,100379.97
2022-09-16T07:09:15.072Z,100379.06
2022-09-16T07:11:41.857Z,100387.00
2022-09-16T07:14:09.376Z,100388.72
2022-09-16T07:16:36.190Z,100392.28
2022-09-16T07:19:02.977Z,100390.59
2022-09-16T07:21:30.651Z,100396.78
2022-09-16T07:23:59.738Z,100397.69
2022-09-16T07:26:29.148Z,100400.31
2022-09-16T07:28:56.396Z,100406.53
2022-09-16T07:31:26.777Z,100405.63
2022-09-16T07:33:58.968Z,100407.34
2022-09-16T07:36:30.092Z,100412.63
2022-09-16T07:38:58.629Z,100410.00
2022-09-16T07:41:33.974Z,100412.69
2022-09-16T07:44:01.479Z,100401.22
2022-09-16T07:46:31.103Z,100412.72
2022-09-16T07:48:59.516Z,100413.63
2022-09-16T07:51:27.979Z,100423.34
2022-09-16T07:54:04.255Z,100418.03
2022-09-16T07:56:34.740Z,100424.25
2022-09-16T07:59:15.764Z,100431.34
2022-09-16T08:01:50.565Z,100433.09
2022-09-16T08:04:30.190Z,100426.03
2022-09-16T08:06:56.847Z,100427.78
2022-09-16T08:09:41.058Z,100426.03
2022-09-16T08:12:11.062Z,100417.16
2022-09-16T08:14:38.298Z,100430.47
2022-09-16T08:17:05.422Z,100440.22
2022-09-16T08:19:32.253Z,100427.81
2022-09-16T08:21:59.014Z,100434.88
2022-09-16T08:24:26.366Z,100444.63
2022-09-16T08:26:53.928Z,100429.53
2022-09-16T08:29:22.487Z,100433.09
2022-09-16T08:31:49.300Z,100428.66
2022-09-16T08:34:16.893Z,100426.88
2022-09-16T08:37:17.571Z,100421.53
2022-09-16T08:39:48.946Z,100425.09
2022-09-16T08:42:27.912Z,100446.38
2022-09-16T08:45:09.663Z,100446.41
2022-09-16T08:48:14.160Z,100433.97
2022-09-16T08:50:44.001Z,100438.34
2022-09-16T08:53:20.264Z,100445.47
2022-09-16T08:55:49.186Z,100456.09
2022-09-16T08:58:21.997Z,100444.59
2022-09-16T09:01:32.291Z,100453.41
2022-09-16T09:04:08.740Z,100456.94
2022-09-16T09:07:18.488Z,100461.41
2022-09-16T09:10:28.976Z,100456.06
2022-09-16T09:13:15.265Z,100454.25
2022-09-16T09:16:30.111Z,100458.75
2022-09-16T09:19:06.031Z,100448.09
2022-09-16T09:21:46.704Z,100445.34
2022-09-16T09:24:39.866Z,100436.41
2022-09-16T09:27:21.421Z,100449.53
2022-09-16T09:30:25.201Z,100444.22
2022-09-16T09:33:44.926Z,100439.66
2022-09-16T09:36:34.151Z,100442.22
2022-09-16T09:39:25.672Z,100436.03
2022-09-16T09:41:57.443Z,100431.56
2022-09-16T09:44:34.783Z,100431.63
2022-09-16T09:47:06.032Z,100443.09
2022-09-16T09:49:41.194Z,100445.81
2022-09-16T09:52:36.516Z,100415.69
2022-09-16T09:55:21.781Z,100426.41
2022-09-16T09:58:11.084Z,100429.09
2022-09-16T10:00:38.268Z,100441.56
2022-09-16T10:03:14.894Z,100432.91
2022-09-16T10:05:45.024Z,100426.50
2022-09-16T10:08:21.726Z,100426.56
2022-09-16T10:10:55.874Z,100432.50
2022-09-16T10:13:24.362Z,100420.13
2022-09-16T10:15:57.170Z,100419.03
2022-09-16T10:18:30.098Z,100426.16
2022-09-16T10:21:15.062Z,100416.44
2022-09-16T10:23:42.293Z,100403.31
2022-09-16T10:26:22.436Z,100416.63
2022-09-16T10:29:11.925Z,100421.97
2022-09-16T10:31:42.549Z,100434.19
2022-09-16T10:34:18.109Z,100406.66
2022-09-16T10:36:47.370Z,100411.03
2022-09-16T10:39:29.938Z,100400.41
2022-09-16T10:41:57.128Z,100401.19
2022-09-16T10:44:27.709Z,100399.59
2022-09-16T10:47:08.464Z,100409.38
2022-09-16T10:49:56.487Z,100400.53
2022-09-16T10:52:28.795Z,100414.72
2022-09-16T10:54:56.389Z,100411.28
2022-09-16T10:57:24.592Z,100403.28
2022-09-16T11:00:08.941Z,100400.53
2022-09-16T11:02:49.681Z,100402.22
2022-09-16T11:05:29.093Z,100401.25
2022-09-16T11:08:11.222Z,100414.38
2022-09-16T11:10:48.987Z,100422.59
2022-09-16T11:13:24.955Z,100428.03
2022-09-16T11:15:54.930Z,100438.84
2022-09-16T11:18:43.200Z,100439.03
2022-09-16T11:21:47.016Z,100448.00
2022-09-16T11:24:29.305Z,100531.44
2022-09-16T11:27:18.117Z,100497.69
2022-09-16T11:29:53.937Z,100483.50
2022-09-16T11:32:35.966Z,100481.81
2022-09-16T11:35:30.050Z,100462.34
2022-09-16T11:38:03.700Z,100458.81
2022-09-16T11:40:46.955Z,100456.13
2022-09-16T11:43:28.965Z,100454.25
2022-09-16T11:46:27.943Z,100440.88
2022-09-16T11:49:10.721Z,100451.56
2022-09-16T11:51:52.907Z,100456.81
2022-09-16T11:54:41.110Z,100454.66
2022-09-16T11:57:14.585Z,100459.47
2022-09-16T11:59:45.163Z,100451.88
2022-09-16T12:02:51.245Z,100461.03
2022-09-16T12:05:18.245Z,100453.97
2022-09-16T12:08:24.402Z,100455.88
2022-09-16T12:11:23.839Z,100463.81
2022-09-16T12:14:05.380Z,100458.44
2022-09-16T12:16:55.695Z,100454.06
2022-09-16T12:19:30.909Z,100471.75
2022-09-16T12:22:08.540Z,100463.81
2022-09-16T12:25:07.921Z,100464.66
2022-09-16T12:27:41.622Z,100447.72
2022-09-16T12:30:20.090Z,100442.50
2022-09-16T12:32:57.736Z,100444.25
2022-09-16T12:35:26.847Z,100436.19
2022-09-16T12:37:54.674Z,100440.59
2022-09-16T12:40:34.704Z,100446.88
2022-09-16T12:43:18.978Z,100434.16
2022-09-16T12:46:01.113Z,100421.13
2022-09-16T12:48:33.950Z,100421.00
2022-09-16T12:51:09.869Z,100417.44
2022-09-16T12:53:50.252Z,100422.16
2022-09-16T12:56:32.452Z,100405.94
2022-09-16T12:59:27.980Z,100413.03
2022-09-16T13:02:01.983Z,100414.78
2022-09-16T13:04:33.320Z,100409.09
2022-09-16T13:07:01.479Z,100426.06
2022-09-16T13:09:33.407Z,100407.38
2022-09-16T13:15:09.050Z,100432.25
2022-09-16T13:17:38.030Z,100443.47
2022-09-16T13:20:32.315Z,100422.97
2022-09-16T13:23:13.471Z,100440.09
2022-09-16T13:26:02.022Z,100435.94
2022-09-16T13:28:46.699Z,100428.34
2022-09-16T13:31:29.007Z,100441.16
2022-09-16T13:34:18.662Z,100430.63
2022-09-16T13:36:46.999Z,100439.47
2022-09-16T13:39:27.948Z,100439.69
2022-09-16T13:41:57.984Z,100438.66
2022-09-16T13:44:50.210Z,100438.56
2022-09-16T13:47:40.482Z,100458.72
2022-09-16T13:50:16.794Z,100442.16
2022-09-16T13:52:44.039Z,100443.09
2022-09-16T13:55:25.264Z,100440.59
2022-09-16T13:58:27.560Z,100449.59
2022-09-16T14:01:06.023Z,100476.31
2022-09-16T14:04:21.109Z,100447.00
2022-09-16T14:06:51.992Z,100439.00
2022-09-16T14:09:55.032Z,100446.09
2022-09-16T14:12:36.705Z,100453.03
2022-09-16T14:15:07.972Z,100431.69
2022-09-16T14:17:51.542Z,100445.19
2022-09-16T14:20:21.398Z,100431.88
2022-09-16T14:23:19.300Z,100433.56
2022-09-16T14:25:49.352Z,100421.94
2022-09-16T14:28:29.545Z,100428.28
2022-09-16T14:31:16.425Z,100422.94
2022-09-16T14:34:22.140Z,100419.34
2022-09-16T14:37:14.565Z,100423.50
2022-09-16T14:39:44.111Z,100448.50
2022-09-16T14:42:20.738Z,100420.00
2022-09-16T14:44:53.794Z,100429.00
2022-09-16T14:47:50.776Z,100409.63
2022-09-16T14:50:33.820Z,100421.25
2022-09-16T14:53:03.112Z,100429.03
2022-09-16T14:55:49.683Z,100427.19
2022-09-16T14:58:18.456Z,100449.59
2022-09-16T15:01:10.531Z,100420.94
2022-09-16T15:03:43.299Z,100429.16
2022-09-16T15:06:17.027Z,100428.13
2022-09-16T15:09:00.603Z,100405.84
2022-09-16T15:11:48.674Z,100414.56
2022-09-16T15:15:12.908Z,100424.09
2022-09-16T15:18:06.803Z,100418.16
2022-09-16T15:20:39.993Z,100428.72
2022-09-16T15:23:27.022Z,100408.28
2022-09-16T15:29:32.484Z,100405.97
2022-09-16T15:41:24.475Z,100406.53
2022-09-16T15:43:45.619Z,100398.72
2022-09-16T15:46:25.716Z,100411.97
2022-09-16T15:49:13.757Z,100410.16
2022-09-16T15:51:58.757Z,100410.22
2022-09-16T15:54:32.584Z,100390.94
2022-09-16T15:57:29.267Z,100388.16
2022-09-16T16:00:12.518Z,100396.78
2022-09-16T16:02:57.625Z,100405.88
2022-09-16T16:05:29.446Z,100413.81
2022-09-16T16:08:09.759Z,100415.47
2022-09-16T16:10:38.407Z,100409.19
2022-09-16T16:13:08.577Z,100412.72
2022-09-16T16:15:37.138Z,100420.56
2022-09-16T16:18:06.267Z,100442.63
2022-09-16T16:20:34.709Z,100445.50
2022-09-16T16:23:02.411Z,100470.53
2022-09-16T16:25:32.428Z,100432.38
2022-09-16T16:28:03.475Z,100436.53
2022-09-16T16:30:31.547Z,100439.94
2022-09-16T16:32:58.424Z,100445.22
2022-09-16T16:35:25.249Z,100437.47
2022-09-16T16:37:52.448Z,100440.00
2022-09-16T16:41:01.775Z,100453.63
2022-09-16T16:43:38.640Z,100449.81
2022-09-16T16:46:15.148Z,100449.25
2022-09-16T16:48:45.516Z,100449.97
2022-09-16T16:51:13.293Z,100444.47
2022-09-16T16:53:57.264Z,100441.09
2022-09-16T16:56:24.337Z,100440.97
2022-09-16T16:58:54.714Z,100438.91
2022-09-16T17:01:29.082Z,100435.88
2022-09-16T17:04:20.895Z,100438.56
2022-09-16T17:07:02.653Z,100439.53
2022-09-16T17:09:37.271Z,100437.81
2022-09-16T17:12:08.267Z,100431.66
2022-09-16T17:15:11.093Z,100444.25
2022-09-16T17:17:53.909Z,100463.84
2022-09-16T17:20:37.737Z,100455.03
2022-09-16T17:23:20.770Z,100460.44
2022-09-16T17:26:02.879Z,100457.88
2022-09-16T17:28:43.834Z,100460.44
2022-09-16T17:31:19.468Z,100459.56
2022-09-16T17:34:04.121Z,100465.78
2022-09-16T17:40:38.993Z,100470.19
2022-09-16T17:43:27.737Z,100482.69
2022-09-16T17:46:34.312Z,100473.78
2022-09-16T17:49:30.258Z,100473.81
2022-09-16T17:52:40.065Z,100478.16
2022-09-16T17:55:16.985Z,100484.47
2022-09-16T17:57:53.475Z,100480.69
2022-09-16T18:00:20.845Z,100484.28
2022-09-16T18:03:11.581Z,100474.63
2022-09-16T18:06:06.859Z,100486.94
2022-09-16T18:08:44.050Z,100483.34
2022-09-16T18:11:17.616Z,100486.91
2022-09-16T18:14:10.855Z,100484.28
2022-09-16T18:16:40.313Z,100493.22
2022-09-16T18:19:12.135Z,100496.81
2022-09-16T18:21:39.160Z,100490.56
2022-09-16T18:24:11.330Z,100489.75
2022-09-16T18:26:38.633Z,100492.47
2022-09-16T18:29:10.105Z,100483.56
2022-09-16T18:31:39.448Z,100499.56
2022-09-16T18:34:08.830Z,100499.50
2022-09-16T18:36:37.829Z,100493.31
2022-09-16T18:39:21.146Z,100510.16
2022-09-16T18:44:47.971Z,100514.66
2022-09-16T18:47:14.764Z,100513.75
2022-09-16T18:49:41.802Z,100510.22
2022-09-16T18:52:08.738Z,100520.84
2022-09-16T18:54:35.809Z,100516.41
2022-09-16T18:57:05.868Z,100527.94
2022-09-16T18:59:34.232Z,100516.41
2022-09-16T19:02:03.353Z,100515.53
2022-09-16T19:04:33.664Z,100523.50
2022-09-16T19:07:07.549Z,100517.31
2022-09-16T19:09:48.478Z,100516.44
2022-09-16T19:12:18.007Z,100516.44
2022-09-16T19:14:45.125Z,100521.72
2022-09-16T19:17:11.960Z,100521.75
2022-09-16T19:19:41.517Z,100535.94
2022-09-16T19:22:14.218Z,100523.53
2022-09-16T19:24:44.081Z,100527.06
2022-09-16T19:27:26.763Z,100526.19
2022-09-16T19:29:56.892Z,100531.50
2022-09-16T19:32:53.712Z,100527.94
2022-09-16T19:35:35.302Z,100521.75
2022-09-16T19:38:29.178Z,100530.53
2022-09-16T19:41:06.635Z,100534.06
2022-09-16T19:43:42.311Z,100527.94
2022-09-16T19:46:33.359Z,100532.31
2022-09-16T19:49:21.569Z,100529.59
2022-09-16T19:52:10.694Z,100523.41
2022-09-16T19:54:47.825Z,100534.94
2022-09-16T19:57:38.636Z,100523.25
2022-09-16T20:00:13.387Z,100535.81
2022-09-16T20:03:14.400Z,100527.84
2022-09-16T20:05:52.434Z,100524.19
2022-09-16T20:08:22.213Z,100525.91
2022-09-16T20:10:52.253Z,100529.63
2022-09-16T20:13:24.929Z,100533.03
2022-09-16T20:16:02.046Z,100535.78
2022-09-16T20:18:34.264Z,100539.22
2022-09-16T20:21:23.173Z,100533.19
2022-09-16T20:27:37.085Z,100561.28
2022-09-16T20:30:04.367Z,100547.22
2022-09-16T20:32:42.053Z,100555.13
2022-09-16T20:35:09.643Z,100567.50
2022-09-16T20:37:39.882Z,100565.03
2022-09-16T20:40:19.151Z,100555.34
2022-09-16T20:42:48.465Z,100556.28
2022-09-16T20:45:42.850Z,100573.94
2022-09-16T20:48:12.898Z,100561.56
2022-09-16T20:50:46.171Z,100581.88
2022-09-16T20:54:00.911Z,100569.44
2022-09-16T20:56:37.692Z,100565.78
2022-09-16T20:59:07.510Z,100573.91
2022-09-16T21:01:35.389Z,100565.78
2022-09-16T21:04:04.856Z,100571.09
2022-09-16T21:06:32.585Z,100574.75
2022-09-16T21:09:02.163Z,100582.63
2022-09-16T21:11:30.265Z,100581.69
2022-09-16T21:14:01.861Z,100585.09
2022-09-16T21:16:29.892Z,100579.06
2022-09-16T21:18:58.415Z,100608.25
2022-09-16T21:21:27.768Z,100592.34
2022-09-16T21:23:56.423Z,100587.94
2022-09-16T21:26:28.870Z,100607.34
2022-09-16T21:32:09.830Z,100591.47
2022-09-16T21:34:36.774Z,100595.75
2022-09-16T21:37:05.286Z,100604.56
2022-09-16T21:39:32.255Z,100601.34
2022-09-16T21:42:01.319Z,100601.25
2022-09-16T21:44:31.493Z,100601.00
2022-09-16T21:46:58.616Z,100601.88
2022-09-16T21:49:27.089Z,100595.69
2022-09-16T21:51:59.441Z,100598.34
2022-09-16T21:54:26.724Z,100589.63
2022-09-16T21:56:53.468Z,100587.91
2022-09-16T21:59:20.435Z,100594.00
2022-09-16T22:01:49.412Z,100606.38
2022-09-16T22:04:18.871Z,100595.72
2022-09-16T22:06:46.041Z,100598.34
2022-09-16T22:09:12.801Z,100597.31
2022-09-16T22:11:43.342Z,100605.41
2022-09-16T22:14:11.177Z,100602.81
2022-09-16T22:16:38.526Z,100615.22
2022-09-16T22:19:08.061Z,100608.44
2022-09-16T22:21:37.088Z,100619.78
2022-09-16T22:24:07.832Z,100619.66
2022-09-16T22:26:37.196Z,100607.34
2022-09-16T22:29:06.335Z,100611.81
2022-09-16T22:31:34.163Z,100611.59
2022-09-16T22:34:02.070Z,100605.38
2022-09-16T22:36:31.519Z,100605.19
2022-09-16T22:39:05.476Z,100605.34
2022-09-16T22:41:34.017Z,100599.28
2022-09-16T22:44:01.320Z,100609.03
2022-09-16T22:46:33.469Z,100601.00
2022-09-16T22:49:03.215Z,100602.66
2022-09-16T22:51:30.000Z,100600.16
2022-09-16T22:53:56.911Z,100605.44
2022-09-16T22:56:29.686Z,100597.44
2022-09-16T22:58:58.281Z,100602.00
2022-09-16T23:01:27.525Z,100605.53
2022-09-16T23:03:56.584Z,100610.63
2022-09-16T23:06:27.279Z,100606.31
2022-09-16T23:08:54.040Z,100597.56
2022-09-16T23:11:26.506Z,100606.28
2022-09-16T23:13:54.176Z,100605.47
2022-09-16T23:16:27.185Z,100599.38
2022-09-16T23:18:55.555Z,100593.13
2022-09-16T23:21:24.756Z,100597.63
2022-09-16T23:23:53.551Z,100614.94
2022-09-16T23:26:24.083Z,100603.56
2022-09-16T23:28:56.201Z,100599.72
2022-09-16T23:31:25.921Z,100596.19
2022-09-16T23:33:53.074Z,100593.03
2022-09-16T23:36:20.286Z,100600.88
2022-09-16T23:38:47.181Z,100602.72
2022-09-16T23:41:17.692Z,100588.50
2022-09-16T23:43:44.432Z,100599.97
2022-09-16T23:46:14.111Z,100594.69
2022-09-16T23:48:41.074Z,100597.28
2022-09-16T23:51:09.803Z,100595.72
2022-09-16T23:53:38.779Z,100593.13
2022-09-16T23:56:07.276Z,100593.94
2022-09-16T23:58:35.309Z,100600.16
